Portada
METAR-TAF:

METAR-TAF

Aeroports :

Béchar, Algèria

latitud: 31-37N, longitud: 002-14W, altitud: 773 m

Observació

L'informe es va fer fa 36 minuts, a les 12:00 UTC
Vent 5 kt del Sud-Est
Temperatura 28°C
Humitat 27%
Pressió 1020 hPa
Visibilitat 10 km o més
Escasses núvols a una alçada de 3300 ft

METAR: DAOR 171200Z 13005KT 9999 FEW033 28/07 Q1020

Hora: 13:36 (12:36 UTC)

Pronòstic

L'informe es va fer fa 1 hora i 36 minuts, a les 11:00 UTC
Pronòstic vàlid del 17 a les 12 UTC al 17 a les 21 UTC
Vent 8 kt del Est/Sud-Est
Visibilitat 10 km o més
Núvols disperses a una alçada de 3300 ft
Probabilitat 40% :
Temporalment
l' 17 a les 14 UTC al 17 a les 18 UTC
Vent 22 kt del Sud-Est
Visibilitat: 4000 m
Escasses núvols a una alçada de 3300 ft, Cumulus congestus.
torb baixa de pols

TAF: DAOR 171100Z 1712/1721 12008KT 9999 SCT033 PROB40 TEMPO 1714/1718 14022KT 4000 DRDU FEW033TCU

Observacions i pronòstics meteorològics de més de 4000 aeroports (METAR i TAF).

Les estacions disponibles són els punts grocs i vermells al mapa.

Posi el ratolí al punt desitjat per veure el nom de l'estació.

Feu clic per veure les observacions i els pronòstics meteorològics.

Per canviar el mapa: feu clic els botons verds amb una creu de color negre per apropar; al botó verd amb un guió per allunyar la imatge; o en les fletxes verdes per a mapes adjacents.


METAR-TAF: